49CN weather

Rancho Tehama Airport
Red Bluff, California, United States

Public forecast

Using degrees Fahrenheit for public forecast. Weather courtesy of forecast.io.

Closest aviation weather report (METAR) to Rancho Tehama Airport

Closest report is Red Bluff Municipal Airport, 10.3 nm (19.0 km) NE. Retrieved 2019/10/14 03:54 UTC (35 minutes ago):

KRBL 140354Z AUTO 33003KT 10SM CLR 13/00 A2984 RMK AO2 SLP105 T01330000

Closest aviation forecast (TAF) to Rancho Tehama Airport

Closest forecast is Red Bluff Municipal Airport, 10.3 nm (19.0 km) NE. Retrieved 2019-10-14 00:27 UTC (4 hours ago):

TAF KRBL 132324Z 1400/1424 16008KT P6SM SKC FM140300 34004KT P6SM SKC